sensor_id;sensor_type;location;lat;lon;timestamp;P1;durP1;ratioP1;P2;durP2;ratioP2
5718;SDS011;2884;47.734;9.244;2022-11-20T00:02:21;4.00;;;2.70;;
5718;SDS011;2884;47.734;9.244;2022-11-20T00:04:47;2.87;;;2.17;;
5718;SDS011;2884;47.734;9.244;2022-11-20T00:07:12;2.50;;;2.30;;
5718;SDS011;2884;47.734;9.244;2022-11-20T00:09:38;1.90;;;1.80;;
5718;SDS011;2884;47.734;9.244;2022-11-20T00:12:03;2.30;;;2.20;;
5718;SDS011;2884;47.734;9.244;2022-11-20T00:14:29;2.10;;;2.00;;
5718;SDS011;2884;47.734;9.244;2022-11-20T00:16:55;2.70;;;2.50;;
5718;SDS011;2884;47.734;9.244;2022-11-20T00:19:21;3.27;;;2.37;;
5718;SDS011;2884;47.734;9.244;2022-11-20T00:21:46;2.53;;;2.37;;
5718;SDS011;2884;47.734;9.244;2022-11-20T00:24:12;2.70;;;2.53;;
5718;SDS011;2884;47.734;9.244;2022-11-20T00:26:37;4.73;;;3.13;;
5718;SDS011;2884;47.734;9.244;2022-11-20T00:29:03;2.90;;;2.67;;
5718;SDS011;2884;47.734;9.244;2022-11-20T00:31:29;3.53;;;3.23;;
5718;SDS011;2884;47.734;9.244;2022-11-20T00:33:55;4.13;;;3.40;;
5718;SDS011;2884;47.734;9.244;2022-11-20T00:36:22;3.73;;;3.10;;
5718;SDS011;2884;47.734;9.244;2022-11-20T00:38:52;4.50;;;3.50;;
5718;SDS011;2884;47.734;9.244;2022-11-20T00:41:18;3.60;;;3.30;;
5718;SDS011;2884;47.734;9.244;2022-11-20T00:43:43;3.80;;;3.17;;
5718;SDS011;2884;47.734;9.244;2022-11-20T00:46:10;3.10;;;2.90;;
5718;SDS011;2884;47.734;9.244;2022-11-20T00:48:38;4.30;;;2.80;;
5718;SDS011;2884;47.734;9.244;2022-11-20T00:51:03;4.13;;;3.73;;
5718;SDS011;2884;47.734;9.244;2022-11-20T00:53:30;3.40;;;3.10;;
5718;SDS011;2884;47.734;9.244;2022-11-20T00:55:57;4.20;;;3.33;;
5718;SDS011;2884;47.734;9.244;2022-11-20T00:58:24;8.00;;;3.63;;
5718;SDS011;2884;47.734;9.244;2022-11-20T01:00:50;3.80;;;3.50;;
5718;SDS011;2884;47.734;9.244;2022-11-20T01:03:17;3.70;;;3.30;;
5718;SDS011;2884;47.734;9.244;2022-11-20T01:05:43;3.77;;;3.20;;
5718;SDS011;2884;47.734;9.244;2022-11-20T01:08:09;3.43;;;3.23;;
5718;SDS011;2884;47.734;9.244;2022-11-20T01:10:34;5.40;;;2.53;;
5718;SDS011;2884;47.734;9.244;2022-11-20T01:12:59;6.27;;;3.17;;
5718;SDS011;2884;47.734;9.244;2022-11-20T01:15:44;3.63;;;2.93;;
5718;SDS011;2884;47.734;9.244;2022-11-20T01:18:09;7.60;;;3.73;;
5718;SDS011;2884;47.734;9.244;2022-11-20T01:20:35;6.07;;;3.30;;
5718;SDS011;2884;47.734;9.244;2022-11-20T01:23:04;3.13;;;2.93;;
5718;SDS011;2884;47.734;9.244;2022-11-20T01:25:30;4.23;;;3.00;;
5718;SDS011;2884;47.734;9.244;2022-11-20T01:27:55;5.03;;;3.37;;
5718;SDS011;2884;47.734;9.244;2022-11-20T01:30:24;4.17;;;3.40;;
5718;SDS011;2884;47.734;9.244;2022-11-20T01:32:49;4.00;;;2.90;;
5718;SDS011;2884;47.734;9.244;2022-11-20T01:35:14;4.23;;;3.40;;
5718;SDS011;2884;47.734;9.244;2022-11-20T01:37:40;3.00;;;2.80;;
5718;SDS011;2884;47.734;9.244;2022-11-20T01:40:06;3.60;;;2.90;;
5718;SDS011;2884;47.734;9.244;2022-11-20T01:42:31;4.13;;;2.70;;
5718;SDS011;2884;47.734;9.244;2022-11-20T01:48:15;4.37;;;3.97;;
5718;SDS011;2884;47.734;9.244;2022-11-20T01:50:41;4.70;;;3.03;;
5718;SDS011;2884;47.734;9.244;2022-11-20T01:53:08;3.40;;;3.10;;
5718;SDS011;2884;47.734;9.244;2022-11-20T01:55:36;4.40;;;2.60;;
5718;SDS011;2884;47.734;9.244;2022-11-20T01:58:07;3.45;;;3.13;;
5718;SDS011;2884;47.734;9.244;2022-11-20T02:00:33;4.83;;;3.30;;
5718;SDS011;2884;47.734;9.244;2022-11-20T02:03:00;3.37;;;2.93;;
5718;SDS011;2884;47.734;9.244;2022-11-20T02:08:03;3.10;;;2.80;;
5718;SDS011;2884;47.734;9.244;2022-11-20T02:10:32;3.30;;;3.00;;
5718;SDS011;2884;47.734;9.244;2022-11-20T02:13:01;2.60;;;2.40;;
5718;SDS011;2884;47.734;9.244;2022-11-20T02:15:46;2.80;;;2.57;;
5718;SDS011;2884;47.734;9.244;2022-11-20T02:18:13;2.77;;;2.57;;
5718;SDS011;2884;47.734;9.244;2022-11-20T02:20:42;2.80;;;2.60;;
5718;SDS011;2884;47.734;9.244;2022-11-20T02:23:15;3.33;;;3.00;;
5718;SDS011;2884;47.734;9.244;2022-11-20T02:25:45;5.30;;;2.80;;
5718;SDS011;2884;47.734;9.244;2022-11-20T02:28:14;2.83;;;2.63;;
5718;SDS011;2884;47.734;9.244;2022-11-20T02:30:43;5.30;;;3.30;;
5718;SDS011;2884;47.734;9.244;2022-11-20T02:33:08;3.60;;;2.67;;
5718;SDS011;2884;47.734;9.244;2022-11-20T02:38:00;3.90;;;2.93;;
5718;SDS011;2884;47.734;9.244;2022-11-20T02:40:29;2.87;;;2.67;;
5718;SDS011;2884;47.734;9.244;2022-11-20T02:42:55;3.07;;;2.87;;
5718;SDS011;2884;47.734;9.244;2022-11-20T02:45:21;3.77;;;2.90;;
5718;SDS011;2884;47.734;9.244;2022-11-20T02:47:51;6.17;;;3.30;;
5718;SDS011;2884;47.734;9.244;2022-11-20T02:50:16;3.57;;;2.90;;
5718;SDS011;2884;47.734;9.244;2022-11-20T02:52:42;3.53;;;2.90;;
5718;SDS011;2884;47.734;9.244;2022-11-20T02:55:08;2.77;;;2.50;;
5718;SDS011;2884;47.734;9.244;2022-11-20T02:57:33;3.70;;;3.07;;
5718;SDS011;2884;47.734;9.244;2022-11-20T02:59:59;6.13;;;3.23;;
5718;SDS011;2884;47.734;9.244;2022-11-20T03:02:24;3.47;;;3.17;;
5718;SDS011;2884;47.734;9.244;2022-11-20T03:04:50;3.80;;;2.77;;
5718;SDS011;2884;47.734;9.244;2022-11-20T03:07:15;3.60;;;3.30;;
5718;SDS011;2884;47.734;9.244;2022-11-20T03:09:41;5.83;;;2.60;;
5718;SDS011;2884;47.734;9.244;2022-11-20T03:12:06;3.30;;;3.00;;
5718;SDS011;2884;47.734;9.244;2022-11-20T03:14:32;2.97;;;2.67;;
5718;SDS011;2884;47.734;9.244;2022-11-20T03:16:57;3.07;;;2.70;;
5718;SDS011;2884;47.734;9.244;2022-11-20T03:19:23;6.80;;;2.93;;
5718;SDS011;2884;47.734;9.244;2022-11-20T03:21:49;2.63;;;2.43;;
5718;SDS011;2884;47.734;9.244;2022-11-20T03:24:14;3.27;;;2.70;;
5718;SDS011;2884;47.734;9.244;2022-11-20T03:26:40;3.67;;;3.07;;
5718;SDS011;2884;47.734;9.244;2022-11-20T03:29:06;2.70;;;2.50;;
5718;SDS011;2884;47.734;9.244;2022-11-20T03:31:36;3.25;;;2.65;;
5718;SDS011;2884;47.734;9.244;2022-11-20T03:34:03;2.83;;;2.63;;
5718;SDS011;2884;47.734;9.244;2022-11-20T03:36:29;3.07;;;2.37;;
5718;SDS011;2884;47.734;9.244;2022-11-20T03:38:55;4.10;;;2.13;;
5718;SDS011;2884;47.734;9.244;2022-11-20T03:41:22;3.50;;;2.60;;
5718;SDS011;2884;47.734;9.244;2022-11-20T03:43:49;2.67;;;2.47;;
5718;SDS011;2884;47.734;9.244;2022-11-20T03:46:25;2.87;;;2.60;;
5718;SDS011;2884;47.734;9.244;2022-11-20T03:48:51;3.57;;;3.00;;
5718;SDS011;2884;47.734;9.244;2022-11-20T03:53:51;4.27;;;2.70;;
5718;SDS011;2884;47.734;9.244;2022-11-20T03:56:18;4.03;;;2.23;;
5718;SDS011;2884;47.734;9.244;2022-11-20T03:58:46;4.63;;;2.70;;
5718;SDS011;2884;47.734;9.244;2022-11-20T04:01:13;3.73;;;2.77;;
5718;SDS011;2884;47.734;9.244;2022-11-20T04:03:41;4.33;;;2.50;;
5718;SDS011;2884;47.734;9.244;2022-11-20T04:06:08;3.47;;;2.50;;
5718;SDS011;2884;47.734;9.244;2022-11-20T04:08:35;3.17;;;2.67;;
5718;SDS011;2884;47.734;9.244;2022-11-20T04:11:08;3.20;;;2.50;;
5718;SDS011;2884;47.734;9.244;2022-11-20T04:13:34;4.43;;;2.97;;
5718;SDS011;2884;47.734;9.244;2022-11-20T04:16:00;4.43;;;2.93;;
5718;SDS011;2884;47.734;9.244;2022-11-20T04:18:25;3.27;;;2.97;;
5718;SDS011;2884;47.734;9.244;2022-11-20T04:20:50;3.67;;;2.67;;
5718;SDS011;2884;47.734;9.244;2022-11-20T04:23:16;2.27;;;2.17;;
5718;SDS011;2884;47.734;9.244;2022-11-20T04:25:42;2.50;;;2.30;;
5718;SDS011;2884;47.734;9.244;2022-11-20T04:28:07;3.30;;;2.47;;
5718;SDS011;2884;47.734;9.244;2022-11-20T04:30:33;2.57;;;2.37;;
5718;SDS011;2884;47.734;9.244;2022-11-20T04:32:58;2.80;;;2.60;;
5718;SDS011;2884;47.734;9.244;2022-11-20T04:35:24;2.27;;;2.07;;
5718;SDS011;2884;47.734;9.244;2022-11-20T04:37:52;2.70;;;2.20;;
5718;SDS011;2884;47.734;9.244;2022-11-20T04:40:18;4.33;;;2.77;;
5718;SDS011;2884;47.734;9.244;2022-11-20T04:42:43;2.37;;;2.17;;
5718;SDS011;2884;47.734;9.244;2022-11-20T04:45:09;5.93;;;2.13;;
5718;SDS011;2884;47.734;9.244;2022-11-20T04:47:35;2.97;;;2.50;;
5718;SDS011;2884;47.734;9.244;2022-11-20T04:50:00;2.77;;;2.47;;
5718;SDS011;2884;47.734;9.244;2022-11-20T04:52:26;2.93;;;2.63;;
5718;SDS011;2884;47.734;9.244;2022-11-20T04:54:51;5.23;;;2.90;;
5718;SDS011;2884;47.734;9.244;2022-11-20T04:57:19;3.70;;;3.17;;
5718;SDS011;2884;47.734;9.244;2022-11-20T04:59:45;2.40;;;2.20;;
5718;SDS011;2884;47.734;9.244;2022-11-20T05:02:11;2.50;;;2.33;;
5718;SDS011;2884;47.734;9.244;2022-11-20T05:04:36;2.57;;;2.37;;
5718;SDS011;2884;47.734;9.244;2022-11-20T05:07:02;4.47;;;2.80;;
5718;SDS011;2884;47.734;9.244;2022-11-20T05:09:28;3.03;;;2.73;;
5718;SDS011;2884;47.734;9.244;2022-11-20T05:11:53;5.00;;;3.07;;
5718;SDS011;2884;47.734;9.244;2022-11-20T05:14:19;2.80;;;2.50;;
5718;SDS011;2884;47.734;9.244;2022-11-20T05:16:44;2.77;;;2.57;;
5718;SDS011;2884;47.734;9.244;2022-11-20T05:19:10;2.60;;;2.40;;
5718;SDS011;2884;47.734;9.244;2022-11-20T05:21:35;2.80;;;2.60;;
5718;SDS011;2884;47.734;9.244;2022-11-20T05:24:01;2.87;;;2.63;;
5718;SDS011;2884;47.734;9.244;2022-11-20T05:26:26;2.60;;;2.40;;
5718;SDS011;2884;47.734;9.244;2022-11-20T05:28:52;2.83;;;2.53;;
5718;SDS011;2884;47.734;9.244;2022-11-20T05:31:19;2.97;;;2.77;;
5718;SDS011;2884;47.734;9.244;2022-11-20T05:33:45;2.83;;;2.23;;
5718;SDS011;2884;47.734;9.244;2022-11-20T05:36:12;9.50;;;2.60;;
5718;SDS011;2884;47.734;9.244;2022-11-20T05:38:38;2.80;;;2.60;;
5718;SDS011;2884;47.734;9.244;2022-11-20T05:41:09;6.50;;;2.90;;
5718;SDS011;2884;47.734;9.244;2022-11-20T05:43:39;3.20;;;2.90;;
5718;SDS011;2884;47.734;9.244;2022-11-20T05:46:06;2.72;;;2.60;;
5718;SDS011;2884;47.734;9.244;2022-11-20T05:48:33;4.57;;;2.53;;
5718;SDS011;2884;47.734;9.244;2022-11-20T05:51:00;2.75;;;2.42;;
5718;SDS011;2884;47.734;9.244;2022-11-20T05:53:27;2.67;;;2.50;;
5718;SDS011;2884;47.734;9.244;2022-11-20T05:56:06;2.50;;;2.40;;
5718;SDS011;2884;47.734;9.244;2022-11-20T05:58:35;3.87;;;2.50;;
5718;SDS011;2884;47.734;9.244;2022-11-20T06:03:33;3.03;;;2.77;;
5718;SDS011;2884;47.734;9.244;2022-11-20T06:06:00;7.03;;;2.47;;
5718;SDS011;2884;47.734;9.244;2022-11-20T06:08:25;3.60;;;3.30;;
5718;SDS011;2884;47.734;9.244;2022-11-20T06:10:51;2.40;;;2.30;;
5718;SDS011;2884;47.734;9.244;2022-11-20T06:13:17;13.60;;;11.13;;
5718;SDS011;2884;47.734;9.244;2022-11-20T06:15:47;8.93;;;6.83;;
5718;SDS011;2884;47.734;9.244;2022-11-20T06:18:13;3.13;;;2.40;;
5718;SDS011;2884;47.734;9.244;2022-11-20T06:20:41;2.13;;;1.93;;
5718;SDS011;2884;47.734;9.244;2022-11-20T06:23:10;4.10;;;1.55;;
5718;SDS011;2884;47.734;9.244;2022-11-20T06:25:39;2.43;;;1.60;;
5718;SDS011;2884;47.734;9.244;2022-11-20T06:28:06;2.20;;;1.97;;
5718;SDS011;2884;47.734;9.244;2022-11-20T06:30:32;1.92;;;1.60;;
5718;SDS011;2884;47.734;9.244;2022-11-20T06:32:58;5.43;;;1.90;;
5718;SDS011;2884;47.734;9.244;2022-11-20T06:35:23;3.90;;;1.93;;
5718;SDS011;2884;47.734;9.244;2022-11-20T06:37:49;4.57;;;1.83;;
5718;SDS011;2884;47.734;9.244;2022-11-20T06:40:14;1.87;;;1.50;;
5718;SDS011;2884;47.734;9.244;2022-11-20T06:42:40;7.90;;;3.57;;
5718;SDS011;2884;47.734;9.244;2022-11-20T06:45:06;2.50;;;1.33;;
5718;SDS011;2884;47.734;9.244;2022-11-20T06:47:32;4.05;;;1.70;;
5718;SDS011;2884;47.734;9.244;2022-11-20T06:49:58;1.97;;;1.40;;
5718;SDS011;2884;47.734;9.244;2022-11-20T06:52:24;3.47;;;1.80;;
5718;SDS011;2884;47.734;9.244;2022-11-20T06:54:49;1.93;;;1.80;;
5718;SDS011;2884;47.734;9.244;2022-11-20T06:57:15;2.37;;;2.00;;
5718;SDS011;2884;47.734;9.244;2022-11-20T06:59:40;3.33;;;1.90;;
5718;SDS011;2884;47.734;9.244;2022-11-20T07:02:09;2.37;;;2.20;;
5718;SDS011;2884;47.734;9.244;2022-11-20T07:04:36;2.03;;;1.52;;
5718;SDS011;2884;47.734;9.244;2022-11-20T07:07:01;2.63;;;2.00;;
5718;SDS011;2884;47.734;9.244;2022-11-20T07:09:26;2.27;;;1.60;;
5718;SDS011;2884;47.734;9.244;2022-11-20T07:11:52;3.13;;;1.83;;
5718;SDS011;2884;47.734;9.244;2022-11-20T07:14:17;2.13;;;1.37;;
5718;SDS011;2884;47.734;9.244;2022-11-20T07:16:43;1.30;;;1.10;;
5718;SDS011;2884;47.734;9.244;2022-11-20T07:19:09;1.80;;;1.20;;
5718;SDS011;2884;47.734;9.244;2022-11-20T07:21:34;1.33;;;1.23;;
5718;SDS011;2884;47.734;9.244;2022-11-20T07:24:00;1.30;;;1.20;;
5718;SDS011;2884;47.734;9.244;2022-11-20T07:26:25;1.10;;;0.93;;
5718;SDS011;2884;47.734;9.244;2022-11-20T07:28:51;1.53;;;1.00;;
5718;SDS011;2884;47.734;9.244;2022-11-20T07:31:16;1.23;;;1.13;;
5718;SDS011;2884;47.734;9.244;2022-11-20T07:33:42;1.03;;;1.03;;
5718;SDS011;2884;47.734;9.244;2022-11-20T07:36:08;1.37;;;0.90;;
5718;SDS011;2884;47.734;9.244;2022-11-20T07:38:33;2.00;;;0.90;;
5718;SDS011;2884;47.734;9.244;2022-11-20T07:40:59;2.90;;;1.30;;
5718;SDS011;2884;47.734;9.244;2022-11-20T07:43:26;1.80;;;1.20;;
5718;SDS011;2884;47.734;9.244;2022-11-20T07:45:54;1.97;;;1.50;;
5718;SDS011;2884;47.734;9.244;2022-11-20T07:48:23;0.90;;;0.90;;
5718;SDS011;2884;47.734;9.244;2022-11-20T07:50:49;1.77;;;1.30;;
5718;SDS011;2884;47.734;9.244;2022-11-20T07:53:14;2.13;;;1.37;;
5718;SDS011;2884;47.734;9.244;2022-11-20T07:55:46;2.53;;;1.63;;
5718;SDS011;2884;47.734;9.244;2022-11-20T07:58:11;1.13;;;1.03;;
5718;SDS011;2884;47.734;9.244;2022-11-20T08:00:37;2.70;;;1.23;;
5718;SDS011;2884;47.734;9.244;2022-11-20T08:03:03;1.37;;;1.20;;
5718;SDS011;2884;47.734;9.244;2022-11-20T08:05:29;1.10;;;1.00;;
5718;SDS011;2884;47.734;9.244;2022-11-20T08:07:55;1.00;;;1.00;;
5718;SDS011;2884;47.734;9.244;2022-11-20T08:10:20;1.60;;;1.23;;
5718;SDS011;2884;47.734;9.244;2022-11-20T08:12:50;2.73;;;1.50;;
5718;SDS011;2884;47.734;9.244;2022-11-20T08:15:35;1.33;;;0.97;;
5718;SDS011;2884;47.734;9.244;2022-11-20T08:18:05;1.20;;;1.10;;
5718;SDS011;2884;47.734;9.244;2022-11-20T08:20:32;1.80;;;1.23;;
5718;SDS011;2884;47.734;9.244;2022-11-20T08:22:59;1.10;;;1.10;;
5718;SDS011;2884;47.734;9.244;2022-11-20T08:25:26;0.90;;;0.90;;
5718;SDS011;2884;47.734;9.244;2022-11-20T08:27:52;1.37;;;1.23;;
5718;SDS011;2884;47.734;9.244;2022-11-20T08:30:17;0.93;;;0.93;;
5718;SDS011;2884;47.734;9.244;2022-11-20T08:32:43;1.10;;;1.10;;
5718;SDS011;2884;47.734;9.244;2022-11-20T08:35:08;1.27;;;0.90;;
5718;SDS011;2884;47.734;9.244;2022-11-20T08:37:34;1.03;;;1.03;;
5718;SDS011;2884;47.734;9.244;2022-11-20T08:40:00;3.90;;;1.60;;
5718;SDS011;2884;47.734;9.244;2022-11-20T08:42:25;1.47;;;0.90;;
5718;SDS011;2884;47.734;9.244;2022-11-20T08:44:51;1.80;;;1.20;;
5718;SDS011;2884;47.734;9.244;2022-11-20T08:47:16;2.17;;;1.27;;
5718;SDS011;2884;47.734;9.244;2022-11-20T08:49:42;1.50;;;1.10;;
5718;SDS011;2884;47.734;9.244;2022-11-20T08:52:07;0.93;;;0.93;;
5718;SDS011;2884;47.734;9.244;2022-11-20T08:54:33;1.20;;;1.10;;
5718;SDS011;2884;47.734;9.244;2022-11-20T08:56:58;1.80;;;1.10;;
5718;SDS011;2884;47.734;9.244;2022-11-20T08:59:24;1.00;;;1.00;;
5718;SDS011;2884;47.734;9.244;2022-11-20T09:01:49;1.63;;;1.20;;
5718;SDS011;2884;47.734;9.244;2022-11-20T09:04:15;1.57;;;1.27;;
5718;SDS011;2884;47.734;9.244;2022-11-20T09:06:40;2.20;;;1.33;;
5718;SDS011;2884;47.734;9.244;2022-11-20T09:09:06;3.80;;;1.20;;
5718;SDS011;2884;47.734;9.244;2022-11-20T09:11:32;1.37;;;1.27;;
5718;SDS011;2884;47.734;9.244;2022-11-20T09:13:58;1.70;;;1.43;;
5718;SDS011;2884;47.734;9.244;2022-11-20T09:16:23;1.13;;;1.03;;
5718;SDS011;2884;47.734;9.244;2022-11-20T09:18:49;1.60;;;1.30;;
5718;SDS011;2884;47.734;9.244;2022-11-20T09:21:15;1.80;;;1.27;;
5718;SDS011;2884;47.734;9.244;2022-11-20T09:23:40;1.20;;;1.10;;
5718;SDS011;2884;47.734;9.244;2022-11-20T09:26:10;2.80;;;1.23;;
5718;SDS011;2884;47.734;9.244;2022-11-20T09:28:37;1.67;;;1.10;;
5718;SDS011;2884;47.734;9.244;2022-11-20T09:31:06;1.80;;;1.33;;
5718;SDS011;2884;47.734;9.244;2022-11-20T09:33:32;2.10;;;1.30;;
5718;SDS011;2884;47.734;9.244;2022-11-20T09:35:58;2.30;;;1.33;;
5718;SDS011;2884;47.734;9.244;2022-11-20T09:38:23;2.60;;;1.17;;
5718;SDS011;2884;47.734;9.244;2022-11-20T09:41:14;1.53;;;1.07;;
5718;SDS011;2884;47.734;9.244;2022-11-20T09:44:01;1.23;;;1.00;;
5718;SDS011;2884;47.734;9.244;2022-11-20T09:56:49;1.37;;;1.20;;
5718;SDS011;2884;47.734;9.244;2022-11-20T10:02:00;2.03;;;1.10;;
5718;SDS011;2884;47.734;9.244;2022-11-20T10:04:26;1.10;;;0.90;;
5718;SDS011;2884;47.734;9.244;2022-11-20T10:07:11;1.20;;;1.20;;
5718;SDS011;2884;47.734;9.244;2022-11-20T10:09:58;1.47;;;1.10;;
5718;SDS011;2884;47.734;9.244;2022-11-20T10:26:44;1.90;;;1.07;;
5718;SDS011;2884;47.734;9.244;2022-11-20T10:29:17;2.10;;;1.00;;
5718;SDS011;2884;47.734;9.244;2022-11-20T10:31:50;0.87;;;0.87;;
5718;SDS011;2884;47.734;9.244;2022-11-20T10:36:49;2.97;;;1.20;;
5718;SDS011;2884;47.734;9.244;2022-11-20T10:42:08;10.33;;;0.93;;
5718;SDS011;2884;47.734;9.244;2022-11-20T10:44:36;5.10;;;1.17;;
5718;SDS011;2884;47.734;9.244;2022-11-20T10:47:24;1.27;;;0.70;;
5718;SDS011;2884;47.734;9.244;2022-11-20T10:49:54;1.10;;;0.90;;
5718;SDS011;2884;47.734;9.244;2022-11-20T10:58:20;1.60;;;0.93;;
5718;SDS011;2884;47.734;9.244;2022-11-20T11:00:51;5.40;;;0.80;;
5718;SDS011;2884;47.734;9.244;2022-11-20T11:03:23;1.10;;;0.90;;
5718;SDS011;2884;47.734;9.244;2022-11-20T11:08:19;2.60;;;0.90;;
5718;SDS011;2884;47.734;9.244;2022-11-20T11:10:51;1.63;;;1.03;;
5718;SDS011;2884;47.734;9.244;2022-11-20T11:13:19;1.77;;;1.10;;
5718;SDS011;2884;47.734;9.244;2022-11-20T11:15:50;1.27;;;1.17;;
5718;SDS011;2884;47.734;9.244;2022-11-20T11:18:26;1.90;;;1.20;;
5718;SDS011;2884;47.734;9.244;2022-11-20T11:20:59;1.57;;;0.93;;
5718;SDS011;2884;47.734;9.244;2022-11-20T11:26:04;1.20;;;1.10;;
5718;SDS011;2884;47.734;9.244;2022-11-20T11:28:31;1.40;;;1.00;;
5718;SDS011;2884;47.734;9.244;2022-11-20T11:30:57;0.80;;;0.80;;
5718;SDS011;2884;47.734;9.244;2022-11-20T11:33:24;1.10;;;1.00;;
5718;SDS011;2884;47.734;9.244;2022-11-20T11:35:54;1.73;;;0.90;;
5718;SDS011;2884;47.734;9.244;2022-11-20T11:38:32;5.60;;;1.03;;
5718;SDS011;2884;47.734;9.244;2022-11-20T11:41:00;3.60;;;1.13;;
5718;SDS011;2884;47.734;9.244;2022-11-20T11:43:26;1.93;;;0.80;;
5718;SDS011;2884;47.734;9.244;2022-11-20T11:46:21;2.30;;;0.80;;
5718;SDS011;2884;47.734;9.244;2022-11-20T11:48:57;1.17;;;1.07;;
5718;SDS011;2884;47.734;9.244;2022-11-20T11:51:28;1.43;;;1.27;;
5718;SDS011;2884;47.734;9.244;2022-11-20T11:53:58;0.87;;;0.80;;
5718;SDS011;2884;47.734;9.244;2022-11-20T11:56:24;2.50;;;0.87;;
5718;SDS011;2884;47.734;9.244;2022-11-20T11:58:51;1.07;;;1.00;;
5718;SDS011;2884;47.734;9.244;2022-11-20T12:03:42;1.20;;;0.80;;
5718;SDS011;2884;47.734;9.244;2022-11-20T12:06:15;3.13;;;1.00;;
5718;SDS011;2884;47.734;9.244;2022-11-20T12:08:59;1.20;;;1.10;;
5718;SDS011;2884;47.734;9.244;2022-11-20T12:11:36;4.87;;;1.57;;
5718;SDS011;2884;47.734;9.244;2022-11-20T12:14:18;1.47;;;0.90;;
5718;SDS011;2884;47.734;9.244;2022-11-20T12:17:03;2.00;;;1.03;;
5718;SDS011;2884;47.734;9.244;2022-11-20T12:19:30;0.83;;;0.80;;
5718;SDS011;2884;47.734;9.244;2022-11-20T12:22:09;1.00;;;0.90;;
5718;SDS011;2884;47.734;9.244;2022-11-20T12:27:24;1.27;;;0.90;;
5718;SDS011;2884;47.734;9.244;2022-11-20T12:30:10;1.07;;;0.80;;
5718;SDS011;2884;47.734;9.244;2022-11-20T12:32:52;1.00;;;0.90;;
5718;SDS011;2884;47.734;9.244;2022-11-20T12:52:45;2.20;;;1.13;;
5718;SDS011;2884;47.734;9.244;2022-11-20T12:55:16;3.07;;;1.10;;
5718;SDS011;2884;47.734;9.244;2022-11-20T12:57:57;1.63;;;1.10;;
5718;SDS011;2884;47.734;9.244;2022-11-20T13:00:23;4.33;;;1.20;;
5718;SDS011;2884;47.734;9.244;2022-11-20T13:08:32;1.90;;;1.40;;
5718;SDS011;2884;47.734;9.244;2022-11-20T13:11:03;3.37;;;1.43;;
5718;SDS011;2884;47.734;9.244;2022-11-20T13:16:32;2.30;;;1.53;;
5718;SDS011;2884;47.734;9.244;2022-11-20T13:19:03;3.97;;;1.50;;
5718;SDS011;2884;47.734;9.244;2022-11-20T13:24:24;1.60;;;1.40;;
5718;SDS011;2884;47.734;9.244;2022-11-20T13:29:41;8.03;;;2.20;;
5718;SDS011;2884;47.734;9.244;2022-11-20T13:34:37;1.50;;;0.90;;
5718;SDS011;2884;47.734;9.244;2022-11-20T13:37:03;5.00;;;1.50;;
5718;SDS011;2884;47.734;9.244;2022-11-20T13:39:32;2.20;;;1.33;;
5718;SDS011;2884;47.734;9.244;2022-11-20T13:42:00;3.23;;;1.30;;
5718;SDS011;2884;47.734;9.244;2022-11-20T13:44:53;5.63;;;1.33;;
5718;SDS011;2884;47.734;9.244;2022-11-20T13:47:21;2.70;;;1.30;;
5718;SDS011;2884;47.734;9.244;2022-11-20T13:49:48;5.10;;;1.00;;
5718;SDS011;2884;47.734;9.244;2022-11-20T13:55:11;3.30;;;1.00;;
5718;SDS011;2884;47.734;9.244;2022-11-20T14:00:08;2.13;;;1.03;;
5718;SDS011;2884;47.734;9.244;2022-11-20T14:02:37;2.50;;;1.00;;
5718;SDS011;2884;47.734;9.244;2022-11-20T14:05:02;2.57;;;1.03;;
5718;SDS011;2884;47.734;9.244;2022-11-20T14:07:35;1.27;;;1.03;;
5718;SDS011;2884;47.734;9.244;2022-11-20T14:10:05;5.07;;;0.90;;
5718;SDS011;2884;47.734;9.244;2022-11-20T14:12:31;1.60;;;1.00;;
5718;SDS011;2884;47.734;9.244;2022-11-20T14:14:58;1.93;;;1.07;;
5718;SDS011;2884;47.734;9.244;2022-11-20T14:17:31;1.17;;;0.70;;
5718;SDS011;2884;47.734;9.244;2022-11-20T14:20:05;1.77;;;1.30;;
5718;SDS011;2884;47.734;9.244;2022-11-20T14:22:32;2.40;;;1.07;;
5718;SDS011;2884;47.734;9.244;2022-11-20T14:25:39;3.40;;;1.30;;
5718;SDS011;2884;47.734;9.244;2022-11-20T14:27:53;1.33;;;0.87;;
5718;SDS011;2884;47.734;9.244;2022-11-20T14:30:36;1.33;;;0.63;;
5718;SDS011;2884;47.734;9.244;2022-11-20T14:33:04;2.00;;;0.80;;
5718;SDS011;2884;47.734;9.244;2022-11-20T14:35:31;3.53;;;0.90;;
5718;SDS011;2884;47.734;9.244;2022-11-20T14:38:01;1.10;;;0.90;;
5718;SDS011;2884;47.734;9.244;2022-11-20T14:42:55;2.20;;;1.20;;
5718;SDS011;2884;47.734;9.244;2022-11-20T14:45:21;3.40;;;0.90;;
5718;SDS011;2884;47.734;9.244;2022-11-20T14:47:47;4.40;;;0.90;;
5718;SDS011;2884;47.734;9.244;2022-11-20T14:50:23;6.07;;;0.90;;
5718;SDS011;2884;47.734;9.244;2022-11-20T14:52:57;1.00;;;0.80;;
5718;SDS011;2884;47.734;9.244;2022-11-20T14:57:54;2.43;;;1.03;;
5718;SDS011;2884;47.734;9.244;2022-11-20T15:00:22;1.00;;;0.80;;
5718;SDS011;2884;47.734;9.244;2022-11-20T15:02:52;1.60;;;1.30;;
5718;SDS011;2884;47.734;9.244;2022-11-20T15:05:19;2.03;;;1.30;;
5718;SDS011;2884;47.734;9.244;2022-11-20T15:07:47;1.83;;;1.10;;
5718;SDS011;2884;47.734;9.244;2022-11-20T15:10:25;2.40;;;0.90;;
5718;SDS011;2884;47.734;9.244;2022-11-20T15:12:55;2.00;;;1.20;;
5718;SDS011;2884;47.734;9.244;2022-11-20T15:15:32;2.13;;;1.10;;
5718;SDS011;2884;47.734;9.244;2022-11-20T15:18:00;1.27;;;0.87;;
5718;SDS011;2884;47.734;9.244;2022-11-20T15:20:30;1.03;;;0.70;;
5718;SDS011;2884;47.734;9.244;2022-11-20T15:22:56;1.27;;;0.83;;
5718;SDS011;2884;47.734;9.244;2022-11-20T15:25:22;1.63;;;1.20;;
5718;SDS011;2884;47.734;9.244;2022-11-20T15:27:51;1.43;;;1.10;;
5718;SDS011;2884;47.734;9.244;2022-11-20T15:30:21;2.17;;;1.13;;
5718;SDS011;2884;47.734;9.244;2022-11-20T15:36:24;1.37;;;0.90;;
5718;SDS011;2884;47.734;9.244;2022-11-20T15:38:50;1.23;;;0.77;;
5718;SDS011;2884;47.734;9.244;2022-11-20T15:41:15;1.40;;;1.20;;
5718;SDS011;2884;47.734;9.244;2022-11-20T15:43:43;2.10;;;1.00;;
5718;SDS011;2884;47.734;9.244;2022-11-20T15:46:19;2.97;;;1.00;;
5718;SDS011;2884;47.734;9.244;2022-11-20T15:48:51;1.63;;;1.20;;
5718;SDS011;2884;47.734;9.244;2022-11-20T15:51:24;6.60;;;3.27;;
5718;SDS011;2884;47.734;9.244;2022-11-20T15:53:55;5.03;;;2.80;;
5718;SDS011;2884;47.734;9.244;2022-11-20T15:56:20;4.97;;;2.60;;
5718;SDS011;2884;47.734;9.244;2022-11-20T15:58:46;5.57;;;3.40;;
5718;SDS011;2884;47.734;9.244;2022-11-20T16:01:12;5.30;;;1.67;;
5718;SDS011;2884;47.734;9.244;2022-11-20T16:03:39;3.23;;;1.70;;
5718;SDS011;2884;47.734;9.244;2022-11-20T16:06:26;2.10;;;1.20;;
5718;SDS011;2884;47.734;9.244;2022-11-20T16:08:52;10.47;;;5.40;;
5718;SDS011;2884;47.734;9.244;2022-11-20T16:11:17;6.57;;;3.27;;
5718;SDS011;2884;47.734;9.244;2022-11-20T16:13:43;7.27;;;4.43;;
5718;SDS011;2884;47.734;9.244;2022-11-20T16:16:31;5.83;;;4.00;;
5718;SDS011;2884;47.734;9.244;2022-11-20T16:18:58;5.13;;;3.50;;
5718;SDS011;2884;47.734;9.244;2022-11-20T16:21:24;6.67;;;3.60;;
5718;SDS011;2884;47.734;9.244;2022-11-20T16:24:00;12.77;;;4.80;;
5718;SDS011;2884;47.734;9.244;2022-11-20T16:26:27;9.33;;;5.40;;
5718;SDS011;2884;47.734;9.244;2022-11-20T16:28:53;5.97;;;4.33;;
5718;SDS011;2884;47.734;9.244;2022-11-20T16:31:19;4.27;;;3.20;;
5718;SDS011;2884;47.734;9.244;2022-11-20T16:33:49;6.00;;;3.07;;
5718;SDS011;2884;47.734;9.244;2022-11-20T16:36:16;5.63;;;2.90;;
5718;SDS011;2884;47.734;9.244;2022-11-20T16:38:41;1.83;;;1.73;;
5718;SDS011;2884;47.734;9.244;2022-11-20T16:41:07;2.63;;;2.43;;
5718;SDS011;2884;47.734;9.244;2022-11-20T16:43:54;4.53;;;3.03;;
5718;SDS011;2884;47.734;9.244;2022-11-20T16:46:22;4.50;;;2.20;;
5718;SDS011;2884;47.734;9.244;2022-11-20T16:48:56;2.00;;;1.87;;
5718;SDS011;2884;47.734;9.244;2022-11-20T16:51:23;8.70;;;5.23;;
5718;SDS011;2884;47.734;9.244;2022-11-20T16:53:49;7.90;;;5.93;;
5718;SDS011;2884;47.734;9.244;2022-11-20T16:56:16;8.30;;;5.40;;
5718;SDS011;2884;47.734;9.244;2022-11-20T16:58:43;8.90;;;6.50;;
5718;SDS011;2884;47.734;9.244;2022-11-20T17:01:11;4.23;;;3.90;;
5718;SDS011;2884;47.734;9.244;2022-11-20T17:03:38;2.97;;;2.77;;
5718;SDS011;2884;47.734;9.244;2022-11-20T17:06:12;2.13;;;1.80;;
5718;SDS011;2884;47.734;9.244;2022-11-20T17:08:39;3.20;;;2.27;;
5718;SDS011;2884;47.734;9.244;2022-11-20T17:11:05;5.40;;;3.90;;
5718;SDS011;2884;47.734;9.244;2022-11-20T17:13:31;4.60;;;3.90;;